sensor_id;sensor_type;location;lat;lon;timestamp;P1;durP1;ratioP1;P2;durP2;ratioP2
15451;SDS011;7827;53.594;9.938;2023-07-08T00:01:15;0.50;;;0.50;;
15451;SDS011;7827;53.594;9.938;2023-07-08T00:03:46;0.50;;;0.50;;
15451;SDS011;7827;53.594;9.938;2023-07-08T00:06:17;0.50;;;0.50;;
15451;SDS011;7827;53.594;9.938;2023-07-08T00:08:48;0.50;;;0.50;;
15451;SDS011;7827;53.594;9.938;2023-07-08T00:11:18;0.55;;;0.55;;
15451;SDS011;7827;53.594;9.938;2023-07-08T00:13:46;0.50;;;0.50;;
15451;SDS011;7827;53.594;9.938;2023-07-08T00:16:16;0.50;;;0.50;;
15451;SDS011;7827;53.594;9.938;2023-07-08T00:18:46;0.50;;;0.50;;
15451;SDS011;7827;53.594;9.938;2023-07-08T00:21:16;0.60;;;0.60;;
15451;SDS011;7827;53.594;9.938;2023-07-08T00:23:46;0.50;;;0.50;;
15451;SDS011;7827;53.594;9.938;2023-07-08T00:26:19;0.50;;;0.50;;
15451;SDS011;7827;53.594;9.938;2023-07-08T00:28:52;0.50;;;0.50;;
15451;SDS011;7827;53.594;9.938;2023-07-08T00:31:21;0.60;;;0.60;;
15451;SDS011;7827;53.594;9.938;2023-07-08T00:33:53;0.52;;;0.52;;
15451;SDS011;7827;53.594;9.938;2023-07-08T00:36:24;0.57;;;0.57;;
15451;SDS011;7827;53.594;9.938;2023-07-08T00:38:55;0.60;;;0.60;;
15451;SDS011;7827;53.594;9.938;2023-07-08T00:41:25;0.50;;;0.50;;
15451;SDS011;7827;53.594;9.938;2023-07-08T00:43:58;0.60;;;0.60;;
15451;SDS011;7827;53.594;9.938;2023-07-08T00:46:31;0.60;;;0.60;;
15451;SDS011;7827;53.594;9.938;2023-07-08T00:49:13;0.60;;;0.60;;
15451;SDS011;7827;53.594;9.938;2023-07-08T00:51:54;0.57;;;0.57;;
15451;SDS011;7827;53.594;9.938;2023-07-08T00:54:22;0.50;;;0.50;;
15451;SDS011;7827;53.594;9.938;2023-07-08T00:56:53;0.60;;;0.60;;
15451;SDS011;7827;53.594;9.938;2023-07-08T00:59:26;0.60;;;0.60;;
15451;SDS011;7827;53.594;9.938;2023-07-08T01:02:01;0.57;;;0.57;;
15451;SDS011;7827;53.594;9.938;2023-07-08T01:04:37;0.60;;;0.60;;
15451;SDS011;7827;53.594;9.938;2023-07-08T01:07:15;0.60;;;0.60;;
15451;SDS011;7827;53.594;9.938;2023-07-08T01:09:50;0.60;;;0.60;;
15451;SDS011;7827;53.594;9.938;2023-07-08T01:12:26;0.50;;;0.50;;
15451;SDS011;7827;53.594;9.938;2023-07-08T01:15:01;0.57;;;0.57;;
15451;SDS011;7827;53.594;9.938;2023-07-08T01:17:32;0.60;;;0.60;;
15451;SDS011;7827;53.594;9.938;2023-07-08T01:20:01;0.60;;;0.60;;
15451;SDS011;7827;53.594;9.938;2023-07-08T01:22:35;0.60;;;0.60;;
15451;SDS011;7827;53.594;9.938;2023-07-08T01:25:05;0.60;;;0.60;;
15451;SDS011;7827;53.594;9.938;2023-07-08T01:27:37;0.52;;;0.52;;
15451;SDS011;7827;53.594;9.938;2023-07-08T01:30:10;0.60;;;0.60;;
15451;SDS011;7827;53.594;9.938;2023-07-08T01:32:39;0.50;;;0.50;;
15451;SDS011;7827;53.594;9.938;2023-07-08T01:35:16;0.60;;;0.60;;
15451;SDS011;7827;53.594;9.938;2023-07-08T01:37:48;0.50;;;0.50;;
15451;SDS011;7827;53.594;9.938;2023-07-08T01:40:26;0.60;;;0.60;;
15451;SDS011;7827;53.594;9.938;2023-07-08T01:42:57;0.60;;;0.60;;
15451;SDS011;7827;53.594;9.938;2023-07-08T01:45:28;0.60;;;0.60;;
15451;SDS011;7827;53.594;9.938;2023-07-08T01:48:02;0.50;;;0.50;;
15451;SDS011;7827;53.594;9.938;2023-07-08T01:50:35;0.50;;;0.50;;
15451;SDS011;7827;53.594;9.938;2023-07-08T01:53:11;0.50;;;0.50;;
15451;SDS011;7827;53.594;9.938;2023-07-08T01:55:43;0.50;;;0.50;;
15451;SDS011;7827;53.594;9.938;2023-07-08T01:58:11;0.50;;;0.50;;
15451;SDS011;7827;53.594;9.938;2023-07-08T02:00:40;0.60;;;0.60;;
15451;SDS011;7827;53.594;9.938;2023-07-08T02:03:09;0.60;;;0.60;;
15451;SDS011;7827;53.594;9.938;2023-07-08T02:05:38;0.50;;;0.50;;
15451;SDS011;7827;53.594;9.938;2023-07-08T02:08:07;0.60;;;0.60;;
15451;SDS011;7827;53.594;9.938;2023-07-08T02:10:38;0.50;;;0.50;;
15451;SDS011;7827;53.594;9.938;2023-07-08T02:13:08;0.50;;;0.50;;
15451;SDS011;7827;53.594;9.938;2023-07-08T02:15:37;0.60;;;0.60;;
15451;SDS011;7827;53.594;9.938;2023-07-08T02:18:05;0.60;;;0.60;;
15451;SDS011;7827;53.594;9.938;2023-07-08T02:20:34;0.50;;;0.50;;
15451;SDS011;7827;53.594;9.938;2023-07-08T02:23:02;0.50;;;0.50;;
15451;SDS011;7827;53.594;9.938;2023-07-08T02:25:32;0.60;;;0.60;;
15451;SDS011;7827;53.594;9.938;2023-07-08T02:28:00;0.60;;;0.60;;
15451;SDS011;7827;53.594;9.938;2023-07-08T02:30:29;0.60;;;0.60;;
15451;SDS011;7827;53.594;9.938;2023-07-08T02:32:58;0.60;;;0.60;;
15451;SDS011;7827;53.594;9.938;2023-07-08T02:35:27;0.57;;;0.57;;
15451;SDS011;7827;53.594;9.938;2023-07-08T02:37:57;0.60;;;0.60;;
15451;SDS011;7827;53.594;9.938;2023-07-08T02:40:26;0.60;;;0.60;;
15451;SDS011;7827;53.594;9.938;2023-07-08T02:42:55;0.60;;;0.60;;
15451;SDS011;7827;53.594;9.938;2023-07-08T02:45:24;0.60;;;0.60;;
15451;SDS011;7827;53.594;9.938;2023-07-08T02:47:52;0.60;;;0.60;;
15451;SDS011;7827;53.594;9.938;2023-07-08T02:50:20;0.52;;;0.52;;
15451;SDS011;7827;53.594;9.938;2023-07-08T02:52:51;0.60;;;0.60;;
15451;SDS011;7827;53.594;9.938;2023-07-08T02:55:19;0.60;;;0.60;;
15451;SDS011;7827;53.594;9.938;2023-07-08T02:57:47;0.60;;;0.60;;
15451;SDS011;7827;53.594;9.938;2023-07-08T03:00:17;0.60;;;0.60;;
15451;SDS011;7827;53.594;9.938;2023-07-08T03:02:46;0.60;;;0.60;;
15451;SDS011;7827;53.594;9.938;2023-07-08T03:05:14;0.60;;;0.60;;
15451;SDS011;7827;53.594;9.938;2023-07-08T03:07:43;0.60;;;0.60;;
15451;SDS011;7827;53.594;9.938;2023-07-08T03:10:11;0.60;;;0.60;;
15451;SDS011;7827;53.594;9.938;2023-07-08T03:12:40;0.55;;;0.55;;
15451;SDS011;7827;53.594;9.938;2023-07-08T03:15:08;0.60;;;0.60;;
15451;SDS011;7827;53.594;9.938;2023-07-08T03:17:39;0.52;;;0.52;;
15451;SDS011;7827;53.594;9.938;2023-07-08T03:20:09;0.55;;;0.55;;
15451;SDS011;7827;53.594;9.938;2023-07-08T03:22:38;0.60;;;0.60;;
15451;SDS011;7827;53.594;9.938;2023-07-08T03:25:06;0.50;;;0.50;;
15451;SDS011;7827;53.594;9.938;2023-07-08T03:27:36;0.60;;;0.60;;
15451;SDS011;7827;53.594;9.938;2023-07-08T03:30:05;0.60;;;0.60;;
15451;SDS011;7827;53.594;9.938;2023-07-08T03:32:36;0.60;;;0.60;;
15451;SDS011;7827;53.594;9.938;2023-07-08T03:35:07;0.52;;;0.52;;
15451;SDS011;7827;53.594;9.938;2023-07-08T03:37:36;0.60;;;0.60;;
15451;SDS011;7827;53.594;9.938;2023-07-08T03:40:07;0.60;;;0.60;;
15451;SDS011;7827;53.594;9.938;2023-07-08T03:42:37;0.60;;;0.60;;
15451;SDS011;7827;53.594;9.938;2023-07-08T03:45:06;0.50;;;0.50;;
15451;SDS011;7827;53.594;9.938;2023-07-08T03:47:35;0.60;;;0.60;;
15451;SDS011;7827;53.594;9.938;2023-07-08T03:50:08;0.60;;;0.60;;
15451;SDS011;7827;53.594;9.938;2023-07-08T03:52:46;0.60;;;0.60;;
15451;SDS011;7827;53.594;9.938;2023-07-08T03:55:16;0.57;;;0.57;;
15451;SDS011;7827;53.594;9.938;2023-07-08T03:57:45;0.60;;;0.60;;
15451;SDS011;7827;53.594;9.938;2023-07-08T04:00:14;0.60;;;0.60;;
15451;SDS011;7827;53.594;9.938;2023-07-08T04:02:45;0.52;;;0.52;;
15451;SDS011;7827;53.594;9.938;2023-07-08T04:05:21;0.50;;;0.50;;
15451;SDS011;7827;53.594;9.938;2023-07-08T04:07:51;0.50;;;0.50;;
15451;SDS011;7827;53.594;9.938;2023-07-08T04:10:20;0.60;;;0.60;;
15451;SDS011;7827;53.594;9.938;2023-07-08T04:12:49;0.60;;;0.60;;
15451;SDS011;7827;53.594;9.938;2023-07-08T04:15:17;0.50;;;0.50;;
15451;SDS011;7827;53.594;9.938;2023-07-08T04:17:51;0.50;;;0.50;;
15451;SDS011;7827;53.594;9.938;2023-07-08T04:20:23;0.57;;;0.57;;
15451;SDS011;7827;53.594;9.938;2023-07-08T04:22:52;0.50;;;0.50;;
15451;SDS011;7827;53.594;9.938;2023-07-08T04:25:20;0.43;;;0.43;;
15451;SDS011;7827;53.594;9.938;2023-07-08T04:27:54;0.40;;;0.40;;
15451;SDS011;7827;53.594;9.938;2023-07-08T04:30:23;0.30;;;0.30;;
15451;SDS011;7827;53.594;9.938;2023-07-08T04:32:53;0.40;;;0.40;;
15451;SDS011;7827;53.594;9.938;2023-07-08T04:35:24;0.30;;;0.30;;
15451;SDS011;7827;53.594;9.938;2023-07-08T04:37:52;0.30;;;0.30;;
15451;SDS011;7827;53.594;9.938;2023-07-08T04:40:23;0.40;;;0.40;;
15451;SDS011;7827;53.594;9.938;2023-07-08T04:42:51;0.32;;;0.32;;
15451;SDS011;7827;53.594;9.938;2023-07-08T04:45:20;0.40;;;0.40;;
15451;SDS011;7827;53.594;9.938;2023-07-08T04:47:49;0.30;;;0.30;;
15451;SDS011;7827;53.594;9.938;2023-07-08T04:50:19;0.30;;;0.30;;
15451;SDS011;7827;53.594;9.938;2023-07-08T04:52:49;0.40;;;0.40;;
15451;SDS011;7827;53.594;9.938;2023-07-08T04:55:18;0.30;;;0.30;;
15451;SDS011;7827;53.594;9.938;2023-07-08T04:57:46;0.30;;;0.30;;
15451;SDS011;7827;53.594;9.938;2023-07-08T05:00:15;0.40;;;0.40;;
15451;SDS011;7827;53.594;9.938;2023-07-08T05:02:46;0.40;;;0.40;;
15451;SDS011;7827;53.594;9.938;2023-07-08T05:05:14;0.30;;;0.30;;
15451;SDS011;7827;53.594;9.938;2023-07-08T05:07:43;0.40;;;0.40;;
15451;SDS011;7827;53.594;9.938;2023-07-08T05:10:13;0.40;;;0.40;;
15451;SDS011;7827;53.594;9.938;2023-07-08T05:12:42;0.40;;;0.40;;
15451;SDS011;7827;53.594;9.938;2023-07-08T05:15:12;0.45;;;0.45;;
15451;SDS011;7827;53.594;9.938;2023-07-08T05:17:42;0.40;;;0.40;;
15451;SDS011;7827;53.594;9.938;2023-07-08T05:20:13;0.40;;;0.40;;
15451;SDS011;7827;53.594;9.938;2023-07-08T05:22:42;0.40;;;0.40;;
15451;SDS011;7827;53.594;9.938;2023-07-08T05:25:12;0.38;;;0.38;;
15451;SDS011;7827;53.594;9.938;2023-07-08T05:27:41;0.40;;;0.40;;
15451;SDS011;7827;53.594;9.938;2023-07-08T05:30:11;0.40;;;0.40;;
15451;SDS011;7827;53.594;9.938;2023-07-08T05:32:43;0.40;;;0.40;;
15451;SDS011;7827;53.594;9.938;2023-07-08T05:35:12;0.40;;;0.40;;
15451;SDS011;7827;53.594;9.938;2023-07-08T05:37:41;0.40;;;0.40;;
15451;SDS011;7827;53.594;9.938;2023-07-08T05:40:14;0.47;;;0.47;;
15451;SDS011;7827;53.594;9.938;2023-07-08T05:42:43;0.32;;;0.32;;
15451;SDS011;7827;53.594;9.938;2023-07-08T05:45:11;0.40;;;0.40;;
15451;SDS011;7827;53.594;9.938;2023-07-08T05:47:40;0.40;;;0.40;;
15451;SDS011;7827;53.594;9.938;2023-07-08T05:50:09;0.30;;;0.30;;
15451;SDS011;7827;53.594;9.938;2023-07-08T05:52:37;0.40;;;0.40;;
15451;SDS011;7827;53.594;9.938;2023-07-08T05:55:06;0.40;;;0.40;;
15451;SDS011;7827;53.594;9.938;2023-07-08T05:57:36;0.47;;;0.40;;
15451;SDS011;7827;53.594;9.938;2023-07-08T06:00:05;0.40;;;0.40;;
15451;SDS011;7827;53.594;9.938;2023-07-08T06:02:38;0.30;;;0.30;;
15451;SDS011;7827;53.594;9.938;2023-07-08T06:05:06;0.35;;;0.35;;
15451;SDS011;7827;53.594;9.938;2023-07-08T06:07:35;0.30;;;0.30;;
15451;SDS011;7827;53.594;9.938;2023-07-08T06:10:04;0.30;;;0.30;;
15451;SDS011;7827;53.594;9.938;2023-07-08T06:12:33;0.40;;;0.40;;
15451;SDS011;7827;53.594;9.938;2023-07-08T06:15:03;0.30;;;0.30;;
15451;SDS011;7827;53.594;9.938;2023-07-08T06:17:33;0.30;;;0.30;;
15451;SDS011;7827;53.594;9.938;2023-07-08T06:20:02;0.32;;;0.32;;
15451;SDS011;7827;53.594;9.938;2023-07-08T06:22:31;0.30;;;0.30;;
15451;SDS011;7827;53.594;9.938;2023-07-08T06:25:12;0.30;;;0.30;;
15451;SDS011;7827;53.594;9.938;2023-07-08T06:27:40;0.38;;;0.38;;
15451;SDS011;7827;53.594;9.938;2023-07-08T06:30:10;0.30;;;0.30;;
15451;SDS011;7827;53.594;9.938;2023-07-08T06:32:39;0.30;;;0.30;;
15451;SDS011;7827;53.594;9.938;2023-07-08T06:35:07;0.30;;;0.30;;
15451;SDS011;7827;53.594;9.938;2023-07-08T06:37:36;0.30;;;0.30;;
15451;SDS011;7827;53.594;9.938;2023-07-08T06:40:05;0.30;;;0.30;;
15451;SDS011;7827;53.594;9.938;2023-07-08T06:42:36;0.30;;;0.30;;
15451;SDS011;7827;53.594;9.938;2023-07-08T06:45:27;0.30;;;0.30;;
15451;SDS011;7827;53.594;9.938;2023-07-08T06:47:55;0.30;;;0.30;;
15451;SDS011;7827;53.594;9.938;2023-07-08T06:50:24;0.30;;;0.30;;
15451;SDS011;7827;53.594;9.938;2023-07-08T06:52:52;0.30;;;0.30;;
15451;SDS011;7827;53.594;9.938;2023-07-08T06:55:21;0.30;;;0.30;;
15451;SDS011;7827;53.594;9.938;2023-07-08T06:57:49;0.30;;;0.30;;
15451;SDS011;7827;53.594;9.938;2023-07-08T07:00:18;0.30;;;0.30;;
15451;SDS011;7827;53.594;9.938;2023-07-08T07:02:48;0.32;;;0.32;;
15451;SDS011;7827;53.594;9.938;2023-07-08T07:05:17;0.20;;;0.20;;
15451;SDS011;7827;53.594;9.938;2023-07-08T07:07:48;0.30;;;0.30;;
15451;SDS011;7827;53.594;9.938;2023-07-08T07:10:19;0.30;;;0.30;;
15451;SDS011;7827;53.594;9.938;2023-07-08T07:12:47;0.30;;;0.30;;
15451;SDS011;7827;53.594;9.938;2023-07-08T07:15:16;0.30;;;0.30;;
15451;SDS011;7827;53.594;9.938;2023-07-08T07:17:44;0.30;;;0.30;;
15451;SDS011;7827;53.594;9.938;2023-07-08T07:20:14;0.30;;;0.30;;
15451;SDS011;7827;53.594;9.938;2023-07-08T07:22:43;0.30;;;0.30;;
15451;SDS011;7827;53.594;9.938;2023-07-08T07:25:11;0.20;;;0.20;;
15451;SDS011;7827;53.594;9.938;2023-07-08T07:27:40;0.30;;;0.30;;
15451;SDS011;7827;53.594;9.938;2023-07-08T07:30:08;0.20;;;0.20;;
15451;SDS011;7827;53.594;9.938;2023-07-08T07:32:41;0.20;;;0.20;;
15451;SDS011;7827;53.594;9.938;2023-07-08T07:35:10;0.20;;;0.20;;
15451;SDS011;7827;53.594;9.938;2023-07-08T07:37:43;0.30;;;0.30;;
15451;SDS011;7827;53.594;9.938;2023-07-08T07:40:12;0.30;;;0.30;;
15451;SDS011;7827;53.594;9.938;2023-07-08T07:42:42;0.20;;;0.20;;
15451;SDS011;7827;53.594;9.938;2023-07-08T07:45:13;0.30;;;0.30;;
15451;SDS011;7827;53.594;9.938;2023-07-08T07:47:42;0.30;;;0.30;;
15451;SDS011;7827;53.594;9.938;2023-07-08T07:50:10;0.30;;;0.30;;
15451;SDS011;7827;53.594;9.938;2023-07-08T07:52:38;0.30;;;0.30;;
15451;SDS011;7827;53.594;9.938;2023-07-08T07:55:10;0.20;;;0.20;;
15451;SDS011;7827;53.594;9.938;2023-07-08T07:57:39;0.20;;;0.20;;
15451;SDS011;7827;53.594;9.938;2023-07-08T08:00:08;0.30;;;0.30;;
15451;SDS011;7827;53.594;9.938;2023-07-08T08:02:42;0.30;;;0.30;;
15451;SDS011;7827;53.594;9.938;2023-07-08T08:05:11;0.20;;;0.20;;
15451;SDS011;7827;53.594;9.938;2023-07-08T08:07:40;0.20;;;0.20;;
15451;SDS011;7827;53.594;9.938;2023-07-08T08:10:09;0.20;;;0.20;;
15451;SDS011;7827;53.594;9.938;2023-07-08T08:12:39;0.20;;;0.20;;
15451;SDS011;7827;53.594;9.938;2023-07-08T08:15:19;0.25;;;0.25;;
15451;SDS011;7827;53.594;9.938;2023-07-08T08:17:49;0.25;;;0.25;;
15451;SDS011;7827;53.594;9.938;2023-07-08T08:20:19;0.20;;;0.20;;
15451;SDS011;7827;53.594;9.938;2023-07-08T08:22:50;0.20;;;0.20;;
15451;SDS011;7827;53.594;9.938;2023-07-08T08:25:21;0.20;;;0.20;;
15451;SDS011;7827;53.594;9.938;2023-07-08T08:27:51;0.20;;;0.20;;
15451;SDS011;7827;53.594;9.938;2023-07-08T08:30:20;0.20;;;0.20;;
15451;SDS011;7827;53.594;9.938;2023-07-08T08:32:49;0.20;;;0.20;;
15451;SDS011;7827;53.594;9.938;2023-07-08T08:35:18;0.20;;;0.20;;
15451;SDS011;7827;53.594;9.938;2023-07-08T08:37:46;0.25;;;0.25;;
15451;SDS011;7827;53.594;9.938;2023-07-08T08:40:15;0.20;;;0.20;;
15451;SDS011;7827;53.594;9.938;2023-07-08T08:42:52;0.20;;;0.20;;
15451;SDS011;7827;53.594;9.938;2023-07-08T08:45:27;0.20;;;0.20;;
15451;SDS011;7827;53.594;9.938;2023-07-08T08:48:01;0.20;;;0.20;;
15451;SDS011;7827;53.594;9.938;2023-07-08T08:50:35;0.20;;;0.20;;
15451;SDS011;7827;53.594;9.938;2023-07-08T08:53:13;0.20;;;0.20;;
15451;SDS011;7827;53.594;9.938;2023-07-08T08:55:45;0.20;;;0.20;;
15451;SDS011;7827;53.594;9.938;2023-07-08T08:58:23;0.20;;;0.20;;
15451;SDS011;7827;53.594;9.938;2023-07-08T09:01:04;0.20;;;0.20;;
15451;SDS011;7827;53.594;9.938;2023-07-08T09:03:41;0.20;;;0.20;;
15451;SDS011;7827;53.594;9.938;2023-07-08T09:06:16;0.20;;;0.20;;
15451;SDS011;7827;53.594;9.938;2023-07-08T09:08:48;0.20;;;0.20;;
15451;SDS011;7827;53.594;9.938;2023-07-08T09:11:23;0.20;;;0.20;;
15451;SDS011;7827;53.594;9.938;2023-07-08T09:14:10;0.20;;;0.20;;
15451;SDS011;7827;53.594;9.938;2023-07-08T09:16:48;0.20;;;0.20;;
15451;SDS011;7827;53.594;9.938;2023-07-08T09:19:32;0.20;;;0.20;;
15451;SDS011;7827;53.594;9.938;2023-07-08T09:22:11;0.20;;;0.20;;
15451;SDS011;7827;53.594;9.938;2023-07-08T09:24:45;0.20;;;0.20;;
15451;SDS011;7827;53.594;9.938;2023-07-08T09:27:18;0.20;;;0.20;;
15451;SDS011;7827;53.594;9.938;2023-07-08T09:29:48;0.22;;;0.22;;
15451;SDS011;7827;53.594;9.938;2023-07-08T09:32:17;0.20;;;0.20;;
15451;SDS011;7827;53.594;9.938;2023-07-08T09:34:50;0.20;;;0.20;;
15451;SDS011;7827;53.594;9.938;2023-07-08T09:37:21;0.20;;;0.20;;
15451;SDS011;7827;53.594;9.938;2023-07-08T09:39:53;0.20;;;0.20;;
15451;SDS011;7827;53.594;9.938;2023-07-08T09:42:25;0.20;;;0.20;;
15451;SDS011;7827;53.594;9.938;2023-07-08T09:44:58;0.20;;;0.20;;
15451;SDS011;7827;53.594;9.938;2023-07-08T09:47:33;0.20;;;0.20;;
15451;SDS011;7827;53.594;9.938;2023-07-08T09:50:10;0.20;;;0.20;;
15451;SDS011;7827;53.594;9.938;2023-07-08T09:52:45;0.20;;;0.20;;
15451;SDS011;7827;53.594;9.938;2023-07-08T09:55:15;0.20;;;0.20;;
15451;SDS011;7827;53.594;9.938;2023-07-08T09:57:44;0.20;;;0.20;;
15451;SDS011;7827;53.594;9.938;2023-07-08T10:00:18;0.20;;;0.20;;
15451;SDS011;7827;53.594;9.938;2023-07-08T10:02:55;0.20;;;0.20;;
15451;SDS011;7827;53.594;9.938;2023-07-08T10:05:27;0.20;;;0.20;;
15451;SDS011;7827;53.594;9.938;2023-07-08T10:08:04;0.20;;;0.20;;
15451;SDS011;7827;53.594;9.938;2023-07-08T10:10:43;0.20;;;0.20;;
15451;SDS011;7827;53.594;9.938;2023-07-08T10:13:17;0.10;;;0.10;;
15451;SDS011;7827;53.594;9.938;2023-07-08T10:15:55;0.20;;;0.20;;
15451;SDS011;7827;53.594;9.938;2023-07-08T10:18:34;0.20;;;0.20;;
15451;SDS011;7827;53.594;9.938;2023-07-08T10:21:03;0.20;;;0.20;;
15451;SDS011;7827;53.594;9.938;2023-07-08T10:23:42;0.20;;;0.20;;
15451;SDS011;7827;53.594;9.938;2023-07-08T10:26:20;0.10;;;0.10;;
15451;SDS011;7827;53.594;9.938;2023-07-08T10:28:58;0.20;;;0.20;;
15451;SDS011;7827;53.594;9.938;2023-07-08T10:31:48;0.10;;;0.10;;
15451;SDS011;7827;53.594;9.938;2023-07-08T10:34:29;0.20;;;0.20;;
15451;SDS011;7827;53.594;9.938;2023-07-08T10:37:15;0.20;;;0.20;;
15451;SDS011;7827;53.594;9.938;2023-07-08T10:40:02;0.20;;;0.20;;
15451;SDS011;7827;53.594;9.938;2023-07-08T10:43:07;0.10;;;0.10;;
15451;SDS011;7827;53.594;9.938;2023-07-08T10:46:15;0.10;;;0.10;;
15451;SDS011;7827;53.594;9.938;2023-07-08T10:49:06;0.17;;;0.17;;
15451;SDS011;7827;53.594;9.938;2023-07-08T10:52:07;0.20;;;0.20;;
15451;SDS011;7827;53.594;9.938;2023-07-08T10:55:12;0.20;;;0.20;;
15451;SDS011;7827;53.594;9.938;2023-07-08T10:58:06;0.20;;;0.20;;
15451;SDS011;7827;53.594;9.938;2023-07-08T11:01:13;0.20;;;0.20;;
15451;SDS011;7827;53.594;9.938;2023-07-08T11:04:04;0.10;;;0.10;;
15451;SDS011;7827;53.594;9.938;2023-07-08T11:06:55;0.10;;;0.10;;
15451;SDS011;7827;53.594;9.938;2023-07-08T11:09:31;0.20;;;0.20;;
15451;SDS011;7827;53.594;9.938;2023-07-08T11:12:11;0.20;;;0.20;;
15451;SDS011;7827;53.594;9.938;2023-07-08T11:14:55;0.15;;;0.15;;
15451;SDS011;7827;53.594;9.938;2023-07-08T11:17:35;0.10;;;0.10;;
15451;SDS011;7827;53.594;9.938;2023-07-08T11:20:16;0.10;;;0.10;;
15451;SDS011;7827;53.594;9.938;2023-07-08T11:22:51;0.10;;;0.10;;
15451;SDS011;7827;53.594;9.938;2023-07-08T11:25:27;0.10;;;0.10;;
15451;SDS011;7827;53.594;9.938;2023-07-08T11:27:59;0.20;;;0.20;;
15451;SDS011;7827;53.594;9.938;2023-07-08T11:30:43;0.10;;;0.10;;
15451;SDS011;7827;53.594;9.938;2023-07-08T11:33:17;0.10;;;0.10;;
15451;SDS011;7827;53.594;9.938;2023-07-08T11:35:53;0.10;;;0.10;;
15451;SDS011;7827;53.594;9.938;2023-07-08T11:38:25;0.20;;;0.20;;
15451;SDS011;7827;53.594;9.938;2023-07-08T11:40:55;0.10;;;0.10;;
15451;SDS011;7827;53.594;9.938;2023-07-08T11:43:28;0.20;;;0.20;;
15451;SDS011;7827;53.594;9.938;2023-07-08T11:46:11;0.10;;;0.10;;
15451;SDS011;7827;53.594;9.938;2023-07-08T11:48:46;0.10;;;0.10;;
15451;SDS011;7827;53.594;9.938;2023-07-08T11:51:21;0.10;;;0.10;;
15451;SDS011;7827;53.594;9.938;2023-07-08T11:53:58;0.10;;;0.10;;
15451;SDS011;7827;53.594;9.938;2023-07-08T11:56:46;0.20;;;0.20;;
15451;SDS011;7827;53.594;9.938;2023-07-08T11:59:25;0.10;;;0.10;;
15451;SDS011;7827;53.594;9.938;2023-07-08T12:02:01;0.20;;;0.20;;
15451;SDS011;7827;53.594;9.938;2023-07-08T12:04:32;0.20;;;0.20;;
15451;SDS011;7827;53.594;9.938;2023-07-08T12:07:29;0.20;;;0.20;;
15451;SDS011;7827;53.594;9.938;2023-07-08T12:10:03;0.10;;;0.10;;
15451;SDS011;7827;53.594;9.938;2023-07-08T12:12:41;0.10;;;0.10;;
15451;SDS011;7827;53.594;9.938;2023-07-08T12:15:14;0.10;;;0.10;;
15451;SDS011;7827;53.594;9.938;2023-07-08T12:17:50;0.20;;;0.20;;
15451;SDS011;7827;53.594;9.938;2023-07-08T12:20:22;0.10;;;0.10;;
15451;SDS011;7827;53.594;9.938;2023-07-08T12:22:57;0.10;;;0.10;;
15451;SDS011;7827;53.594;9.938;2023-07-08T12:25:27;0.10;;;0.10;;
15451;SDS011;7827;53.594;9.938;2023-07-08T12:27:58;0.10;;;0.10;;
15451;SDS011;7827;53.594;9.938;2023-07-08T12:30:27;0.13;;;0.13;;
15451;SDS011;7827;53.594;9.938;2023-07-08T12:32:59;0.10;;;0.10;;
15451;SDS011;7827;53.594;9.938;2023-07-08T12:35:29;0.10;;;0.10;;
15451;SDS011;7827;53.594;9.938;2023-07-08T12:38:02;0.10;;;0.10;;
15451;SDS011;7827;53.594;9.938;2023-07-08T12:40:45;0.10;;;0.10;;
15451;SDS011;7827;53.594;9.938;2023-07-08T12:43:14;0.10;;;0.10;;
15451;SDS011;7827;53.594;9.938;2023-07-08T12:45:44;0.10;;;0.10;;
15451;SDS011;7827;53.594;9.938;2023-07-08T12:48:13;0.10;;;0.10;;
15451;SDS011;7827;53.594;9.938;2023-07-08T12:50:42;0.10;;;0.10;;
15451;SDS011;7827;53.594;9.938;2023-07-08T12:53:11;0.10;;;0.10;;
15451;SDS011;7827;53.594;9.938;2023-07-08T12:55:40;0.10;;;0.10;;
15451;SDS011;7827;53.594;9.938;2023-07-08T12:58:12;0.10;;;0.10;;
15451;SDS011;7827;53.594;9.938;2023-07-08T13:00:47;0.10;;;0.10;;
15451;SDS011;7827;53.594;9.938;2023-07-08T13:03:16;0.10;;;0.10;;
15451;SDS011;7827;53.594;9.938;2023-07-08T13:05:51;0.10;;;0.10;;
15451;SDS011;7827;53.594;9.938;2023-07-08T13:08:24;0.10;;;0.10;;
15451;SDS011;7827;53.594;9.938;2023-07-08T13:11:02;0.10;;;0.10;;
15451;SDS011;7827;53.594;9.938;2023-07-08T13:13:34;0.10;;;0.10;;
15451;SDS011;7827;53.594;9.938;2023-07-08T13:16:08;0.10;;;0.10;;
15451;SDS011;7827;53.594;9.938;2023-07-08T13:18:39;0.10;;;0.10;;
15451;SDS011;7827;53.594;9.938;2023-07-08T13:21:10;0.10;;;0.10;;
15451;SDS011;7827;53.594;9.938;2023-07-08T13:23:44;0.10;;;0.10;;
15451;SDS011;7827;53.594;9.938;2023-07-08T13:26:13;0.10;;;0.10;;
15451;SDS011;7827;53.594;9.938;2023-07-08T13:28:44;0.10;;;0.10;;
15451;SDS011;7827;53.594;9.938;2023-07-08T13:31:17;0.10;;;0.10;;
15451;SDS011;7827;53.594;9.938;2023-07-08T13:33:51;0.10;;;0.10;;
15451;SDS011;7827;53.594;9.938;2023-07-08T13:36:22;0.10;;;0.10;;
15451;SDS011;7827;53.594;9.938;2023-07-08T13:38:56;0.10;;;0.10;;
15451;SDS011;7827;53.594;9.938;2023-07-08T13:41:25;0.15;;;0.15;;
15451;SDS011;7827;53.594;9.938;2023-07-08T13:43:54;0.10;;;0.10;;
15451;SDS011;7827;53.594;9.938;2023-07-08T13:46:28;0.10;;;0.10;;
15451;SDS011;7827;53.594;9.938;2023-07-08T13:49:01;0.10;;;0.10;;
15451;SDS011;7827;53.594;9.938;2023-07-08T13:51:37;0.10;;;0.10;;
15451;SDS011;7827;53.594;9.938;2023-07-08T13:54:12;0.10;;;0.10;;
15451;SDS011;7827;53.594;9.938;2023-07-08T13:56:47;0.10;;;0.10;;
15451;SDS011;7827;53.594;9.938;2023-07-08T13:59:18;0.15;;;0.15;;
15451;SDS011;7827;53.594;9.938;2023-07-08T14:01:51;0.10;;;0.10;;
15451;SDS011;7827;53.594;9.938;2023-07-08T14:04:25;0.10;;;0.10;;
15451;SDS011;7827;53.594;9.938;2023-07-08T14:06:57;0.10;;;0.10;;
15451;SDS011;7827;53.594;9.938;2023-07-08T14:09:27;0.10;;;0.10;;
15451;SDS011;7827;53.594;9.938;2023-07-08T14:11:55;0.10;;;0.10;;
15451;SDS011;7827;53.594;9.938;2023-07-08T14:14:23;0.10;;;0.10;;
15451;SDS011;7827;53.594;9.938;2023-07-08T14:16:52;0.10;;;0.10;;
15451;SDS011;7827;53.594;9.938;2023-07-08T14:19:23;0.10;;;0.10;;
15451;SDS011;7827;53.594;9.938;2023-07-08T14:21:56;0.17;;;0.17;;
15451;SDS011;7827;53.594;9.938;2023-07-08T14:24:30;0.10;;;0.10;;
15451;SDS011;7827;53.594;9.938;2023-07-08T14:26:58;0.10;;;0.10;;
15451;SDS011;7827;53.594;9.938;2023-07-08T14:29:26;0.10;;;0.10;;
15451;SDS011;7827;53.594;9.938;2023-07-08T14:31:55;0.10;;;0.10;;
15451;SDS011;7827;53.594;9.938;2023-07-08T14:34:24;0.10;;;0.10;;
15451;SDS011;7827;53.594;9.938;2023-07-08T14:36:54;0.13;;;0.13;;
15451;SDS011;7827;53.594;9.938;2023-07-08T14:39:25;0.10;;;0.10;;
15451;SDS011;7827;53.594;9.938;2023-07-08T14:41:55;0.10;;;0.10;;
15451;SDS011;7827;53.594;9.938;2023-07-08T14:44:24;0.10;;;0.10;;
15451;SDS011;7827;53.594;9.938;2023-07-08T14:46:59;0.10;;;0.10;;
15451;SDS011;7827;53.594;9.938;2023-07-08T14:49:28;0.10;;;0.10;;
15451;SDS011;7827;53.594;9.938;2023-07-08T14:51:56;0.10;;;0.10;;
15451;SDS011;7827;53.594;9.938;2023-07-08T14:54:24;0.10;;;0.10;;
15451;SDS011;7827;53.594;9.938;2023-07-08T14:56:54;0.10;;;0.10;;
15451;SDS011;7827;53.594;9.938;2023-07-08T14:59:25;0.10;;;0.10;;
15451;SDS011;7827;53.594;9.938;2023-07-08T15:01:58;0.10;;;0.10;;
15451;SDS011;7827;53.594;9.938;2023-07-08T15:04:30;0.10;;;0.10;;
15451;SDS011;7827;53.594;9.938;2023-07-08T15:06:58;0.10;;;0.10;;
15451;SDS011;7827;53.594;9.938;2023-07-08T15:09:28;0.10;;;0.10;;
15451;SDS011;7827;53.594;9.938;2023-07-08T15:11:57;0.00;;;0.00;;
15451;SDS011;7827;53.594;9.938;2023-07-08T15:14:26;0.00;;;0.00;;
15451;SDS011;7827;53.594;9.938;2023-07-08T15:16:55;0.10;;;0.10;;
15451;SDS011;7827;53.594;9.938;2023-07-08T15:19:24;0.00;;;0.00;;
15451;SDS011;7827;53.594;9.938;2023-07-08T15:21:55;0.10;;;0.10;;
15451;SDS011;7827;53.594;9.938;2023-07-08T15:24:23;0.00;;;0.00;;
15451;SDS011;7827;53.594;9.938;2023-07-08T15:26:52;0.10;;;0.10;;
15451;SDS011;7827;53.594;9.938;2023-07-08T15:29:22;0.10;;;0.10;;
15451;SDS011;7827;53.594;9.938;2023-07-08T15:31:51;0.10;;;0.10;;